Time;durP1;ratioP1;P1;durP2;ratioP2;P2;SDS_P1;SDS_P2;PMS_P1;PMS_P2;Temp;Humidity;BMP_temperature;BMP_pressure;BME280_temperature;BME280_humidity;BME280_pressure;Samples;Min_cycle;Max_cycle;Signal;HPM_P1;HPM_P2
2023/07/06 00:00:01;;;;;;;13.05;9.15;;;;;;;13.24;84.04;100999.91;682687;29;2043;-77
2023/07/06 00:00:22;;;;;;;15.27;9.70;;;;;;;13.18;84.07;100986.66;690320;28;1092;-78
2023/07/06 00:00:43;;;;;;;15.45;9.80;;;;;;;13.14;84.18;100988.34;690999;28;707;-78
2023/07/06 00:01:05;;;;;;;16.02;9.93;;;;;;;13.23;84.37;100993.78;690554;28;1091;-78
2023/07/06 00:01:27;;;;;;;14.23;9.60;;;;;;;13.18;84.04;100994.53;682612;28;1168;-77
2023/07/06 00:01:48;;;;;;;13.70;9.75;;;;;;;13.26;84.34;101003.44;685213;28;1345;-78
2023/07/06 00:02:09;;;;;;;14.15;9.90;;;;;;;13.19;84.43;100993.66;682478;28;1119;-79
2023/07/06 00:02:30;;;;;;;14.57;10.07;;;;;;;13.16;84.71;100987.53;685418;28;1118;-78
2023/07/06 00:02:51;;;;;;;13.53;9.73;;;;;;;13.18;84.51;100991.91;685693;28;1583;-78
2023/07/06 00:03:14;;;;;;;14.77;9.80;;;;;;;13.23;84.46;100998.13;687771;28;1129;-77
2023/07/06 00:03:36;;;;;;;15.77;9.75;;;;;;;13.18;84.61;100994.53;690630;28;1117;-78
2023/07/06 00:03:57;;;;;;;14.80;9.68;;;;;;;13.21;84.30;100998.09;690044;28;1234;-78
2023/07/06 00:04:18;;;;;;;12.60;9.38;;;;;;;13.15;84.40;100985.75;682363;29;1100;-78
2023/07/06 00:04:39;;;;;;;12.40;9.30;;;;;;;13.20;84.56;100987.59;685526;28;809;-78
2023/07/06 00:04:59;;;;;;;12.77;9.10;;;;;;;13.20;84.52;100990.22;679951;29;1190;-78
2023/07/06 00:05:22;;;;;;;14.60;9.10;;;;;;;13.26;84.69;100983.38;684914;28;1215;-78
2023/07/06 00:05:44;;;;;;;14.02;9.02;;;;;;;13.32;84.02;100993.09;684486;28;1331;-77
2023/07/06 00:06:07;;;;;;;15.32;8.85;;;;;;;13.30;84.34;100994.78;677960;28;1097;-77
2023/07/06 00:06:28;;;;;;;13.77;8.98;;;;;;;13.26;84.21;100991.22;682502;29;1229;-78
2023/07/06 00:06:49;;;;;;;13.90;8.90;;;;;;;13.25;84.53;100992.09;683036;28;1337;-78
2023/07/06 00:07:11;;;;;;;11.10;8.73;;;;;;;13.30;84.50;101000.91;682477;29;1280;-78
2023/07/06 00:07:34;;;;;;;11.35;8.27;;;;;;;13.24;84.46;100999.91;682654;29;996;-79
2023/07/06 00:07:56;;;;;;;11.85;8.27;;;;;;;13.30;84.32;101007.91;682829;28;1220;-78
2023/07/06 00:08:16;;;;;;;11.65;8.23;;;;;;;13.23;84.46;100993.78;682592;28;1246;-78
2023/07/06 00:08:37;;;;;;;10.60;8.20;;;;;;;13.29;84.30;100993.03;687947;28;1134;-79
2023/07/06 00:08:59;;;;;;;10.60;8.20;;;;;;;13.30;84.60;100995.66;682335;28;1666;-78
2023/07/06 00:09:20;;;;;;;10.73;8.10;;;;;;;13.29;84.61;100998.28;686420;28;1206;-79
2023/07/06 00:09:41;;;;;;;11.73;7.97;;;;;;;13.23;84.60;100992.91;688037;28;1371;-78
2023/07/06 00:10:04;;;;;;;12.17;8.20;;;;;;;13.21;84.58;100992.84;685092;28;1586;-78
2023/07/06 00:10:25;;;;;;;12.55;8.10;;;;;;;13.26;84.66;100992.94;683542;28;1164;-79
2023/07/06 00:10:49;;;;;;;11.50;7.97;;;;;;;13.27;84.46;100992.13;683018;29;736;-79
2023/07/06 00:11:10;;;;;;;11.30;7.63;;;;;;;13.32;84.43;101003.56;682571;29;1069;-80
2023/07/06 00:11:36;;;;;;;11.82;7.95;;;;;;;13.36;84.62;101004.50;685964;28;1136;-78
2023/07/06 00:11:57;;;;;;;12.10;8.20;;;;;;;13.23;84.28;100987.66;687135;28;856;-77
2023/07/06 00:12:19;;;;;;;12.80;8.48;;;;;;;13.25;84.68;100985.94;684776;28;1457;-79
2023/07/06 00:12:39;;;;;;;12.98;8.35;;;;;;;13.29;84.50;100993.91;684713;28;1409;-78
2023/07/06 00:13:01;;;;;;;13.88;8.02;;;;;;;13.32;84.46;100993.09;686456;28;1285;-79
2023/07/06 00:13:22;;;;;;;12.35;7.57;;;;;;;13.29;84.53;100987.78;689550;28;1127;-78
2023/07/06 00:13:45;;;;;;;11.82;7.60;;;;;;;13.33;84.13;100991.34;682857;29;894;-78
2023/07/06 00:14:07;;;;;;;9.75;7.57;;;;;;;13.30;84.20;101002.66;679880;29;1343;-78
2023/07/06 00:14:28;;;;;;;9.15;7.22;;;;;;;13.30;84.30;101000.03;682318;28;1377;-77
2023/07/06 00:14:50;;;;;;;8.32;7.30;;;;;;;13.33;84.13;101012.31;680321;29;768;-78
2023/07/06 00:15:11;;;;;;;9.50;7.47;;;;;;;13.32;84.32;101006.19;685179;28;1025;-77
2023/07/06 00:15:34;;;;;;;9.07;7.60;;;;;;;13.34;83.91;100994.00;687434;28;1222;-78
2023/07/06 00:15:55;;;;;;;9.05;7.22;;;;;;;13.26;84.21;100995.56;685691;28;1105;-79
2023/07/06 00:16:16;;;;;;;9.13;7.00;;;;;;;13.33;83.83;101000.09;682533;29;1135;-78
2023/07/06 00:16:41;;;;;;;10.88;7.05;;;;;;;13.40;83.91;101007.22;688147;28;1103;-77
2023/07/06 00:17:12;;;;;;;11.15;6.90;;;;;;;13.37;83.77;101007.19;685473;28;1431;-78
2023/07/06 00:17:33;;;;;;;8.63;6.68;;;;;;;13.32;84.16;101003.56;685262;28;1152;-78
2023/07/06 00:17:53;;;;;;;8.20;6.70;;;;;;;13.28;84.03;101004.38;685561;28;941;-78
2023/07/06 00:18:14;;;;;;;8.13;6.90;;;;;;;13.29;84.15;101003.53;682434;29;1340;-79
2023/07/06 00:18:35;;;;;;;8.45;6.95;;;;;;;13.32;84.10;101008.81;682684;29;1273;-78
2023/07/06 00:18:58;;;;;;;7.90;6.50;;;;;;;13.26;84.25;101004.34;683401;28;1123;-79
2023/07/06 00:19:19;;;;;;;8.73;6.90;;;;;;;13.30;84.23;101018.38;682812;28;1341;-78
2023/07/06 00:19:41;;;;;;;8.68;6.90;;;;;;;13.29;84.02;101014.00;687297;28;1915;-79
2023/07/06 00:20:08;;;;;;;8.93;6.93;;;;;;;13.29;84.12;101014.00;682634;29;1192;-78
2023/07/06 00:20:30;;;;;;;9.30;6.60;;;;;;;13.34;84.05;100996.59;689656;28;1387;-78
2023/07/06 00:20:50;;;;;;;10.38;6.68;;;;;;;13.34;83.93;101009.72;685530;28;1141;-78
2023/07/06 00:21:11;;;;;;;8.60;6.35;;;;;;;13.36;83.90;101009.75;690635;28;1097;-78
2023/07/06 00:21:32;;;;;;;9.30;6.63;;;;;;;13.38;84.01;101008.03;690504;28;1206;-79
2023/07/06 00:21:52;;;;;;;10.43;6.80;;;;;;;13.43;83.56;101012.53;685389;28;1161;-78
2023/07/06 00:22:13;;;;;;;11.50;7.30;;;;;;;13.56;83.28;101012.78;685077;28;1344;-78
2023/07/06 00:22:36;;;;;;;11.57;7.47;;;;;;;13.55;82.94;101008.38;685397;28;1092;-78
2023/07/06 00:22:56;;;;;;;10.68;7.35;;;;;;;13.57;82.88;101009.28;685405;28;815;-78
2023/07/06 00:23:17;;;;;;;9.77;6.78;;;;;;;13.51;82.60;101010.06;682675;28;1121;-78
2023/07/06 00:23:43;;;;;;;9.45;6.72;;;;;;;13.45;82.90;101006.44;680128;29;803;-78
2023/07/06 00:24:04;;;;;;;8.93;6.43;;;;;;;13.46;82.81;101003.84;682845;28;1161;-78
2023/07/06 00:24:26;;;;;;;9.85;6.57;;;;;;;13.49;82.88;101005.63;683642;28;1263;-78
2023/07/06 00:24:48;;;;;;;9.50;6.80;;;;;;;13.48;82.55;101003.88;688213;28;1224;-78
2023/07/06 00:25:08;;;;;;;8.98;6.57;;;;;;;13.47;82.69;101004.72;690486;28;1038;-78
2023/07/06 00:25:29;;;;;;;8.05;6.28;;;;;;;13.56;82.75;101020.63;687734;28;1233;-79
2023/07/06 00:25:50;;;;;;;7.70;6.00;;;;;;;13.54;82.52;101014.50;684944;28;1303;-79
2023/07/06 00:26:11;;;;;;;7.53;6.28;;;;;;;13.43;82.60;101009.94;685326;28;1096;-78
2023/07/06 00:26:32;;;;;;;7.90;6.40;;;;;;;13.41;82.59;101003.75;685901;28;1090;-78
2023/07/06 00:26:52;;;;;;;9.70;6.40;;;;;;;13.40;82.72;100996.75;688302;28;878;-78
2023/07/06 00:27:16;;;;;;;10.57;6.60;;;;;;;13.53;82.97;101013.59;689541;28;1439;-79
2023/07/06 00:27:37;;;;;;;13.35;7.00;;;;;;;13.54;82.54;101012.72;685354;28;1055;-78
2023/07/06 00:27:58;;;;;;;14.70;7.43;;;;;;;13.56;82.69;101021.53;690174;28;942;-78
2023/07/06 00:28:24;;;;;;;13.40;6.93;;;;;;;13.52;82.68;101009.22;684887;28;1229;-78
2023/07/06 00:28:48;;;;;;;12.18;6.70;;;;;;;13.41;82.67;101003.75;681747;29;1214;-78
2023/07/06 00:29:09;;;;;;;9.20;6.35;;;;;;;13.48;82.78;101010.00;685229;28;1137;-79
2023/07/06 00:29:34;;;;;;;10.02;6.70;;;;;;;13.51;82.98;101002.19;685224;28;1041;-78
2023/07/06 00:30:15;;;;;;;9.05;6.93;;;;;;;13.46;82.97;101005.59;685357;28;1386;-78
2023/07/06 00:31:10;;;;;;;9.90;6.50;;;;;;;13.55;82.82;100997.91;679808;29;1045;-77
2023/07/06 00:31:40;;;;;;;10.95;6.57;;;;;;;13.60;82.64;101003.22;684043;28;1368;-78
2023/07/06 00:32:47;;;;;;;12.90;6.97;;;;;;;13.66;82.26;101019.09;685354;28;1144;-78
2023/07/06 00:32:51;;;;;;;9.85;6.60;;;;;;;13.56;82.20;101007.53;693098;28;1261;-78
2023/07/06 00:33:14;;;;;;;8.13;6.38;;;;;;;13.53;82.31;100999.63;685088;28;1370;-78
2023/07/06 00:33:36;;;;;;;7.68;6.20;;;;;;;13.51;82.23;101003.94;682706;29;1167;-77
2023/07/06 00:34:03;;;;;;;8.88;6.38;;;;;;;13.49;82.28;100989.91;682927;29;830;-78
2023/07/06 00:34:24;;;;;;;8.57;6.40;;;;;;;13.64;81.94;100992.81;682519;29;1207;-77
2023/07/06 00:34:45;;;;;;;9.68;6.47;;;;;;;13.66;81.57;100996.34;690031;28;1182;-77
2023/07/06 00:35:10;;;;;;;9.35;6.25;;;;;;;13.76;81.21;101009.66;689988;28;1101;-78
2023/07/06 00:35:30;;;;;;;9.50;5.90;;;;;;;13.60;81.64;100998.88;688083;28;1234;-78
2023/07/06 00:35:51;;;;;;;8.40;5.93;;;;;;;13.59;81.69;101012.84;684861;28;1122;-78
2023/07/06 00:36:11;;;;;;;9.32;6.10;;;;;;;13.57;81.91;101001.44;682538;28;1258;-78
2023/07/06 00:36:35;;;;;;;9.53;6.50;;;;;;;13.59;81.73;101012.84;690573;28;1134;-78
2023/07/06 00:36:55;;;;;;;8.82;6.40;;;;;;;13.57;82.14;101007.56;690659;28;1362;-78
2023/07/06 00:37:16;;;;;;;7.90;6.33;;;;;;;13.54;81.77;101012.72;687700;28;1310;-78
2023/07/06 00:37:38;;;;;;;8.57;6.40;;;;;;;13.62;81.48;101010.28;690756;28;1027;-77
2023/07/06 00:37:59;;;;;;;9.23;6.57;;;;;;;13.54;81.62;101012.72;683324;28;1265;-77
2023/07/06 00:38:23;;;;;;;9.55;6.40;;;;;;;13.57;81.76;101014.53;682477;28;1500;-77
2023/07/06 00:38:44;;;;;;;8.90;6.25;;;;;;;13.53;81.83;101010.09;682794;29;913;-78
2023/07/06 00:39:05;;;;;;;8.35;6.05;;;;;;;13.57;82.02;101019.78;683570;28;1453;-77
2023/07/06 00:39:27;;;;;;;10.20;6.47;;;;;;;13.51;81.75;101003.94;683104;28;1906;-79
2023/07/06 00:39:49;;;;;;;10.25;6.18;;;;;;;13.58;81.92;101021.53;685468;28;1972;-78
2023/07/06 00:40:13;;;;;;;9.70;6.10;;;;;;;13.55;81.71;101016.25;679749;29;1090;-77
2023/07/06 00:40:33;;;;;;;7.38;5.90;;;;;;;13.54;81.47;101015.34;677167;28;1225;-77
2023/07/06 00:40:56;;;;;;;7.80;6.50;;;;;;;13.48;81.88;101010.00;677637;29;762;-78
2023/07/06 00:41:17;;;;;;;7.50;6.20;;;;;;;13.52;82.05;101017.06;680775;28;1119;-78
2023/07/06 00:41:37;;;;;;;8.20;5.85;;;;;;;13.46;81.45;101005.59;680095;29;1070;-77
2023/07/06 00:41:58;;;;;;;9.60;5.85;;;;;;;13.56;81.89;101018.03;678494;29;1386;-77
2023/07/06 00:42:22;;;;;;;9.52;5.90;;;;;;;13.50;81.77;100999.53;685406;28;1198;-78
2023/07/06 00:42:44;;;;;;;8.57;6.20;;;;;;;13.57;81.45;101018.06;688358;28;839;-78
2023/07/06 00:43:09;;;;;;;8.02;6.05;;;;;;;13.53;81.58;101015.34;687915;28;1255;-78
2023/07/06 00:43:49;;;;;;;8.60;6.00;;;;;;;13.54;81.46;101014.50;685090;28;1146;-77
2023/07/06 00:44:57;;;;;;;7.82;6.00;;;;;;;13.51;81.43;101011.81;685129;28;1061;-77
2023/07/06 00:45:18;;;;;;;8.10;5.60;;;;;;;13.53;81.13;101020.59;689154;28;1050;-78
2023/07/06 00:45:39;;;;;;;7.35;5.60;;;;;;;13.52;81.39;101013.59;690129;28;1323;-77
2023/07/06 00:46:10;;;;;;;6.47;5.68;;;;;;;13.51;81.45;101019.69;687849;28;1479;-78
2023/07/06 00:46:39;;;;;;;7.93;6.00;;;;;;;13.52;81.08;101024.06;682905;28;1178;-78
2023/07/06 00:47:00;;;;;;;8.73;6.00;;;;;;;13.48;81.05;101009.13;685560;28;1194;-77
2023/07/06 00:47:48;;;;;;;8.37;6.00;;;;;;;13.54;81.14;101019.72;687860;28;1194;-77
2023/07/06 00:48:33;;;;;;;8.20;6.20;;;;;;;13.47;81.16;101020.47;687734;28;1054;-78
2023/07/06 00:49:02;;;;;;;8.35;6.10;;;;;;;13.46;81.06;101013.47;676827;29;1416;-78
2023/07/06 00:49:23;;;;;;;8.18;5.70;;;;;;;13.36;80.95;101004.50;690555;28;1217;-79
2023/07/06 00:49:44;;;;;;;8.88;5.90;;;;;;;13.41;81.08;101014.22;693487;28;877;-78
2023/07/06 00:50:11;;;;;;;8.70;6.00;;;;;;;13.47;81.54;101017.84;688307;28;1029;-77
2023/07/06 00:50:32;;;;;;;8.68;6.00;;;;;;;13.47;81.13;101017.84;684763;28;1088;-77
2023/07/06 00:50:58;;;;;;;8.18;5.70;;;;;;;13.45;80.84;101007.31;685619;28;827;-78
2023/07/06 00:51:27;;;;;;;8.02;5.88;;;;;;;13.44;80.91;101002.94;679937;29;1109;-78
2023/07/06 00:51:47;;;;;;;7.55;6.00;;;;;;;13.46;80.98;101008.22;682739;29;1347;-78
2023/07/06 00:52:10;;;;;;;7.53;5.90;;;;;;;13.46;80.89;101002.97;684955;28;1227;-77
2023/07/06 00:52:31;;;;;;;8.30;6.00;;;;;;;13.46;80.73;101005.59;687120;28;1199;-78
2023/07/06 00:52:58;;;;;;;8.27;6.40;;;;;;;13.44;80.85;101002.94;685439;28;1300;-78
2023/07/06 00:53:20;;;;;;;9.20;6.75;;;;;;;13.48;80.47;101004.78;686191;28;1187;-77
2023/07/06 00:53:44;;;;;;;10.30;6.30;;;;;;;13.46;80.49;101009.06;685391;28;1244;-78
2023/07/06 00:54:09;;;;;;;10.02;6.18;;;;;;;13.52;80.27;101011.81;685087;28;1956;-77
2023/07/06 00:54:29;;;;;;;8.23;5.80;;;;;;;13.57;80.41;101020.69;685157;28;1209;-78
2023/07/06 00:54:51;;;;;;;8.80;6.20;;;;;;;13.63;80.35;101017.28;688070;28;1214;-77
2023/07/06 00:55:15;;;;;;;8.45;6.40;;;;;;;13.57;79.92;100998.81;690472;28;1514;-78
2023/07/06 00:55:41;;;;;;;8.27;6.13;;;;;;;13.63;79.70;101009.41;687076;28;1292;-77
2023/07/06 00:56:03;;;;;;;9.52;6.00;;;;;;;13.59;79.90;100999.75;685292;28;1092;-78
2023/07/06 00:56:28;;;;;;;10.55;6.20;;;;;;;13.62;79.93;101012.91;684206;28;1087;-77
2023/07/06 00:56:52;;;;;;;11.10;6.10;;;;;;;13.68;79.75;101017.38;685456;28;908;-77
2023/07/06 00:57:16;;;;;;;8.95;6.15;;;;;;;13.62;79.60;101002.41;682437;28;1050;-77
2023/07/06 00:57:39;;;;;;;9.07;6.10;;;;;;;13.65;79.38;101007.69;687911;28;1193;-78
2023/07/06 00:58:07;;;;;;;9.65;6.20;;;;;;;13.68;79.58;101013.03;682781;28;1349;-78
2023/07/06 00:58:31;;;;;;;9.85;6.20;;;;;;;13.70;79.56;101021.78;686636;28;1221;-78
2023/07/06 00:59:02;;;;;;;8.48;5.72;;;;;;;13.67;79.39;101019.13;685437;28;978;-78
2023/07/06 00:59:29;;;;;;;7.72;5.95;;;;;;;13.72;79.56;101019.22;686151;28;1072;-77
2023/07/06 00:59:50;;;;;;;8.50;6.53;;;;;;;13.65;79.43;101010.31;682649;28;1924;-78
2023/07/06 01:00:18;;;;;;;8.38;6.38;;;;;;;13.68;79.39;101013.03;683933;28;2002;-78
2023/07/06 01:00:43;;;;;;;7.75;5.90;;;;;;;13.66;79.18;101011.22;682670;28;1101;-78
2023/07/06 01:01:07;;;;;;;8.10;6.05;;;;;;;13.64;79.41;101010.31;679713;28;1200;-77
2023/07/06 01:01:27;;;;;;;8.48;5.95;;;;;;;13.66;79.27;101013.84;686586;28;1341;-77
2023/07/06 01:01:48;;;;;;;9.13;5.90;;;;;;;13.68;79.32;101018.28;693506;28;1186;-78
2023/07/06 01:02:15;;;;;;;9.27;6.20;;;;;;;13.65;79.12;101012.94;686975;28;1244;-78
2023/07/06 01:02:39;;;;;;;8.65;6.20;;;;;;;13.70;79.26;101020.91;690685;28;1089;-78
2023/07/06 01:03:01;;;;;;;8.32;5.80;;;;;;;13.74;79.11;101021.84;678149;28;1376;-79
2023/07/06 01:03:22;;;;;;;9.40;5.80;;;;;;;13.68;79.06;101018.28;683840;28;1428;-78
2023/07/06 01:03:46;;;;;;;9.55;6.00;;;;;;;13.67;79.00;101018.22;685418;28;828;-78
2023/07/06 01:04:11;;;;;;;10.20;6.13;;;;;;;13.53;78.86;101015.34;684346;28;1123;-77
2023/07/06 01:04:32;;;;;;;8.40;6.03;;;;;;;13.61;79.34;101021.63;686862;28;1200;-77
2023/07/06 01:04:53;;;;;;;7.70;5.85;;;;;;;13.55;79.47;101022.41;690433;28;1217;-78
2023/07/06 01:05:15;;;;;;;7.80;6.05;;;;;;;13.63;79.09;101019.91;687424;28;1259;-78
2023/07/06 01:05:39;;;;;;;8.77;6.20;;;;;;;13.71;79.33;101018.31;689911;28;1131;-79
2023/07/06 01:06:03;;;;;;;9.10;5.95;;;;;;;13.66;79.01;101008.59;690567;28;1118;-78
2023/07/06 01:06:37;;;;;;;8.35;5.95;;;;;;;13.69;78.62;101014.78;683329;28;1287;-78
2023/07/06 01:06:58;;;;;;;7.85;6.00;;;;;;;13.65;78.93;101012.94;681314;29;803;-78
2023/07/06 01:07:24;;;;;;;8.00;5.88;;;;;;;13.74;78.82;101017.50;685326;28;1083;-78
2023/07/06 01:07:47;;;;;;;9.40;6.03;;;;;;;13.72;78.77;101013.97;685376;28;1196;-78
2023/07/06 01:08:15;;;;;;;8.18;5.80;;;;;;;13.76;78.73;101018.41;683642;28;1116;-77
2023/07/06 01:08:37;;;;;;;9.02;5.80;;;;;;;13.80;78.34;101021.97;679946;29;1199;-79
2023/07/06 01:08:58;;;;;;;9.20;5.82;;;;;;;13.77;78.53;101016.66;680085;29;808;-78
2023/07/06 01:09:19;;;;;;;7.90;5.68;;;;;;;13.78;78.31;101013.19;677572;29;1092;-78
2023/07/06 01:09:40;;;;;;;6.90;5.50;;;;;;;13.75;78.79;101008.75;688381;28;1080;-78
2023/07/06 01:10:01;;;;;;;7.07;5.30;;;;;;;13.70;78.34;101008.69;687937;28;1109;-78
2023/07/06 01:10:23;;;;;;;7.55;5.55;;;;;;;13.70;78.48;100995.56;686922;28;2025;-78
2023/07/06 01:10:45;;;;;;;9.18;5.80;;;;;;;13.75;78.24;101013.16;687136;28;1315;-78
2023/07/06 01:11:09;;;;;;;8.50;5.90;;;;;;;13.74;78.40;101014.88;682387;29;1208;-78
2023/07/06 01:11:30;;;;;;;8.90;6.00;;;;;;;13.78;78.41;101018.44;686141;28;1411;-78
2023/07/06 01:11:55;;;;;;;8.60;5.80;;;;;;;13.70;78.49;101015.66;685272;28;1342;-78
2023/07/06 01:12:16;;;;;;;10.05;6.00;;;;;;;13.75;78.45;101018.41;685011;28;1038;-78
2023/07/06 01:12:37;;;;;;;9.60;6.30;;;;;;;13.71;78.57;101013.06;692706;28;1387;-79
2023/07/06 01:13:00;;;;;;;9.50;6.22;;;;;;;13.63;78.52;101009.41;687924;28;1123;-77
2023/07/06 01:13:24;;;;;;;8.45;6.20;;;;;;;13.64;78.53;101021.66;688871;28;1165;-77
2023/07/06 01:13:49;;;;;;;8.65;5.88;;;;;;;13.74;78.35;101027.09;687975;28;1981;-78
2023/07/06 01:14:13;;;;;;;8.35;5.88;;;;;;;13.80;78.53;101021.97;682897;28;1080;-78
2023/07/06 01:14:34;;;;;;;8.45;5.90;;;;;;;13.71;78.04;101007.81;693369;28;1255;-77
2023/07/06 01:14:55;;;;;;;8.75;5.95;;;;;;;13.66;78.28;100998.97;687894;28;1196;-78
2023/07/06 01:15:16;;;;;;;7.90;5.70;;;;;;;13.68;78.15;101007.78;687702;28;1059;-78
2023/07/06 01:15:43;;;;;;;9.32;5.80;;;;;;;13.66;78.04;101019.94;685092;28;1356;-78
2023/07/06 01:16:04;;;;;;;9.20;5.60;;;;;;;13.60;78.47;101018.97;685226;28;1451;-78
2023/07/06 01:17:05;;;;;;;9.73;5.70;;;;;;;13.62;78.23;101006.75;689437;28;1360;-77
2023/07/06 01:17:33;;;;;;;8.65;5.70;;;;;;;13.64;78.28;101005.06;682360;28;1265;-77
2023/07/06 01:18:06;;;;;;;8.52;5.70;;;;;;;13.57;78.20;101004.94;685460;28;874;-78
2023/07/06 01:18:39;;;;;;;7.22;5.40;;;;;;;13.63;78.31;101027.78;685358;28;1339;-78
2023/07/06 01:19:02;;;;;;;8.70;5.30;;;;;;;13.51;78.68;101019.69;684507;28;1085;-78
2023/07/06 01:19:23;;;;;;;10.10;5.30;;;;;;;13.53;78.42;101017.97;686195;28;1387;-78
2023/07/06 01:20:14;;;;;;;10.50;5.15;;;;;;;13.36;79.10;101013.28;682725;29;1910;-78
2023/07/06 01:20:48;;;;;;;7.30;5.10;;;;;;;13.40;78.89;101006.34;680340;28;1708;-78
2023/07/06 01:21:21;;;;;;;7.80;5.13;;;;;;;13.40;78.77;101004.59;682185;28;1477;-78
2023/07/06 01:22:13;;;;;;;8.68;5.50;;;;;;;13.53;78.78;101024.06;679492;29;834;-78
2023/07/06 01:22:43;;;;;;;8.48;5.50;;;;;;;13.33;78.79;101009.72;684589;28;1130;-78
2023/07/06 01:23:17;;;;;;;9.10;5.65;;;;;;;13.41;79.07;101022.09;682355;29;1327;-77
2023/07/06 01:24:11;;;;;;;8.98;5.85;;;;;;;13.26;79.56;101008.69;687008;28;1096;-78
2023/07/06 01:24:37;;;;;;;8.68;5.43;;;;;;;13.32;79.42;101016.66;679610;29;2045;-78
2023/07/06 01:25:03;;;;;;;7.55;5.60;;;;;;;13.33;79.77;101017.56;682765;29;906;-77
2023/07/06 01:26:01;;;;;;;7.88;5.90;;;;;;;13.32;79.66;101021.91;680956;29;1109;-78
2023/07/06 01:27:03;;;;;;;9.35;5.40;;;;;;;13.28;79.44;101012.25;688275;28;1158;-78
2023/07/06 01:27:55;;;;;;;6.40;4.95;;;;;;;13.21;79.49;101005.09;685843;28;1305;-77
2023/07/06 01:28:34;;;;;;;6.85;5.00;;;;;;;13.19;79.30;101006.78;686304;28;1372;-78
2023/07/06 01:29:07;;;;;;;8.30;4.55;;;;;;;13.28;79.61;101022.72;684145;28;909;-78
2023/07/06 01:29:54;;;;;;;7.80;4.45;;;;;;;13.17;79.25;101014.63;688261;28;1226;-78
2023/07/06 01:30:42;;;;;;;6.95;5.35;;;;;;;13.40;79.35;101022.94;688318;28;1104;-77
2023/07/06 01:31:19;;;;;;;7.30;5.60;;;;;;;13.25;79.03;101033.13;685021;28;1232;-78
2023/07/06 01:32:02;;;;;;;8.23;5.80;;;;;;;13.07;79.51;101018.78;686068;28;1060;-77
2023/07/06 01:32:26;;;;;;;8.80;5.57;;;;;;;13.09;79.98;101011.81;685266;28;1325;-77
2023/07/06 01:32:55;;;;;;;7.72;5.30;;;;;;;13.12;79.87;101019.78;685329;28;902;-77
2023/07/06 01:33:24;;;;;;;9.55;5.65;;;;;;;13.11;79.89;101025.88;682101;28;1454;-77
2023/07/06 01:33:59;;;;;;;9.48;5.45;;;;;;;13.13;80.03;101018.91;680258;28;993;-78
2023/07/06 01:34:22;;;;;;;7.40;5.30;;;;;;;13.22;79.99;101028.69;685292;28;1177;-77
2023/07/06 01:35:05;;;;;;;9.57;6.00;;;;;;;13.25;79.90;101033.13;685389;28;840;-79
2023/07/06 01:35:44;;;;;;;9.52;6.10;;;;;;;13.16;79.57;101015.47;690835;28;1228;-78
2023/07/06 01:36:24;;;;;;;10.18;5.68;;;;;;;13.14;79.33;101010.19;688263;28;1131;-78
2023/07/06 01:36:56;;;;;;;8.25;5.28;;;;;;;13.20;79.42;101017.31;691686;28;881;-77
2023/07/06 01:37:41;;;;;;;6.78;5.60;;;;;;;13.22;79.39;101027.81;683790;28;1270;-77
2023/07/06 01:38:02;;;;;;;8.32;6.00;;;;;;;13.23;79.54;101032.22;689998;28;1080;-78
2023/07/06 01:38:23;;;;;;;8.48;6.18;;;;;;;13.10;79.53;101021.44;687363;28;1302;-78
2023/07/06 01:38:48;;;;;;;7.68;5.60;;;;;;;13.09;79.59;101019.69;687918;28;1468;-78
2023/07/06 01:39:15;;;;;;;7.00;5.18;;;;;;;13.12;79.56;101021.50;686593;28;1784;-78
2023/07/06 01:39:36;;;;;;;8.55;5.40;;;;;;;13.11;79.48;101020.63;682488;28;1033;-78
2023/07/06 01:39:58;;;;;;;10.50;5.77;;;;;;;13.15;79.92;101027.69;682580;28;1946;-78
2023/07/06 01:40:19;;;;;;;8.93;5.88;;;;;;;13.07;79.73;101031.88;690552;28;1316;-77
2023/07/06 01:40:41;;;;;;;9.80;6.30;;;;;;;12.98;79.63;101015.97;691571;28;846;-78
2023/07/06 01:41:03;;;;;;;8.63;6.03;;;;;;;13.06;79.83;101022.25;687706;28;1283;-77
2023/07/06 01:41:26;;;;;;;9.70;6.05;;;;;;;13.10;79.81;101023.22;683016;28;1260;-77
2023/07/06 01:42:08;;;;;;;8.65;5.75;;;;;;;13.09;80.18;101024.94;687935;28;1240;-78
2023/07/06 01:42:30;;;;;;;8.15;6.00;;;;;;;13.02;79.96;101016.06;687466;28;1098;-77
2023/07/06 01:42:51;;;;;;;10.32;6.22;;;;;;;13.05;80.04;101019.59;684235;28;1489;-77
2023/07/06 01:43:13;;;;;;;12.93;6.20;;;;;;;13.00;80.34;101022.13;687586;28;1197;-77
2023/07/06 01:43:35;;;;;;;11.48;5.90;;;;;;;13.02;80.14;101013.44;685663;28;1080;-77
2023/07/06 01:43:55;;;;;;;10.63;6.00;;;;;;;13.00;80.16;101020.41;687597;28;1099;-77
2023/07/06 01:44:16;;;;;;;7.85;5.82;;;;;;;12.99;80.24;101017.72;684981;28;1144;-77
2023/07/06 01:44:40;;;;;;;8.93;5.73;;;;;;;12.95;80.49;101015.88;690518;28;1155;-77
2023/07/06 01:45:23;;;;;;;9.13;5.57;;;;;;;13.01;80.59;101023.88;687529;28;1378;-78
2023/07/06 01:45:46;;;;;;;9.32;5.90;;;;;;;13.05;80.34;101022.22;685395;28;1225;-77
2023/07/06 01:46:07;;;;;;;7.13;5.70;;;;;;;13.05;80.22;101014.34;682227;28;1351;-78
2023/07/06 01:46:28;;;;;;;7.05;5.63;;;;;;;13.09;80.03;101024.06;685478;28;1893;-77
2023/07/06 01:46:53;;;;;;;7.13;5.50;;;;;;;13.06;80.09;101013.50;677305;29;1094;-78
2023/07/06 01:47:16;;;;;;;8.25;5.65;;;;;;;13.14;80.18;101020.69;684970;28;1070;-78
2023/07/06 01:47:44;;;;;;;7.78;5.60;;;;;;;13.12;80.20;101019.78;685063;28;1231;-77
2023/07/06 01:48:10;;;;;;;7.70;5.93;;;;;;;13.15;80.10;101027.69;687759;28;953;-78
2023/07/06 01:48:31;;;;;;;7.78;5.68;;;;;;;13.15;79.68;101019.81;689849;28;1139;-77
2023/07/06 01:48:52;;;;;;;10.60;6.10;;;;;;;13.15;79.80;101016.34;684910;28;1566;-78
2023/07/06 01:49:13;;;;;;;9.70;5.70;;;;;;;13.08;79.74;101020.53;682146;29;981;-78
2023/07/06 01:49:34;;;;;;;9.63;6.30;;;;;;;13.01;79.96;101014.28;685115;28;1195;-77
2023/07/06 01:49:56;;;;;;;8.23;5.85;;;;;;;12.96;80.08;101001.97;688153;28;1099;-78
2023/07/06 01:50:22;;;;;;;8.80;6.20;;;;;;;13.00;80.09;101012.53;687171;28;1235;-78
2023/07/06 01:50:43;;;;;;;8.52;6.20;;;;;;;13.03;80.21;101027.41;690496;28;1947;-77
2023/07/06 01:51:09;;;;;;;9.23;6.28;;;;;;;13.06;80.14;101024.88;685063;28;1213;-78
2023/07/06 01:51:51;;;;;;;9.73;5.90;;;;;;;13.00;80.15;101024.72;680002;28;1264;-78
2023/07/06 01:52:24;;;;;;;8.18;5.90;;;;;;;12.91;80.31;101020.13;687399;28;1639;-78
2023/07/06 01:53:11;;;;;;;8.25;5.65;;;;;;;13.08;80.27;101032.78;685399;28;1764;-78
2023/07/06 01:53:58;;;;;;;7.45;5.30;;;;;;;12.97;80.25;101029.91;677101;29;1349;-78
2023/07/06 01:54:23;;;;;;;8.90;5.75;;;;;;;12.94;80.60;101014.13;680089;29;1293;-78
2023/07/06 01:55:09;;;;;;;8.68;5.75;;;;;;;13.04;79.93;101029.22;689055;28;1253;-78
2023/07/06 01:55:44;;;;;;;8.50;5.50;;;;;;;12.98;80.16;101019.44;687997;28;1174;-77
2023/07/06 01:56:17;;;;;;;7.47;5.80;;;;;;;12.98;79.97;101018.59;685040;28;1387;-77
2023/07/06 01:56:48;;;;;;;9.45;5.78;;;;;;;12.95;80.09;101018.50;690604;28;906;-78
2023/07/06 01:57:18;;;;;;;10.00;5.53;;;;;;;13.01;80.01;101029.13;679554;28;1187;-78
2023/07/06 01:57:50;;;;;;;7.70;5.32;;;;;;;12.94;79.94;101014.13;685152;28;1127;-78
2023/07/06 01:58:23;;;;;;;7.35;5.35;;;;;;;12.93;80.08;101014.94;682496;28;2036;-77
2023/07/06 01:59:06;;;;;;;7.60;5.30;;;;;;;12.91;80.15;101019.25;679957;29;952;-78
2023/07/06 01:59:32;;;;;;;10.32;5.30;;;;;;;12.96;80.04;101020.28;682757;28;1151;-78
2023/07/06 01:59:56;;;;;;;12.45;6.10;;;;;;;12.97;79.80;101027.31;682636;28;1978;-78
2023/07/06 02:00:19;;;;;;;12.15;6.10;;;;;;;12.95;80.03;101023.72;676952;29;1219;-77
2023/07/06 02:00:48;;;;;;;9.05;5.63;;;;;;;13.00;79.83;101033.50;681560;29;1112;-77
2023/07/06 02:01:15;;;;;;;10.88;5.50;;;;;;;13.00;79.87;101022.13;685588;28;1258;-77
2023/07/06 02:01:46;;;;;;;10.30;5.38;;;;;;;12.92;79.79;101021.94;690537;28;1151;-78
2023/07/06 02:02:08;;;;;;;8.82;5.40;;;;;;;12.94;79.71;101022.88;684452;28;1074;-78
2023/07/06 02:02:30;;;;;;;9.93;5.68;;;;;;;12.95;79.82;101024.63;686860;28;1332;-78
2023/07/06 02:02:53;;;;;;;9.88;5.60;;;;;;;12.98;79.77;101026.44;684483;28;1445;-78
2023/07/06 02:03:15;;;;;;;9.63;5.95;;;;;;;12.97;79.70;101020.31;682314;28;1089;-78
2023/07/06 02:03:38;;;;;;;8.73;5.95;;;;;;;12.92;80.08;101027.16;688235;28;1528;-78